Time;durP1;ratioP1;P1;durP2;ratioP2;P2;SDS_P1;SDS_P2;PMS_P1;PMS_P2;Temp;Humidity;BMP_temperature;BMP_pressure;BME280_temperature;BME280_humidity;BME280_pressure;Samples;Min_cycle;Max_cycle;Signal;HPM_P1;HPM_P2
2023/07/21 00:01:10;;;;;;;4.07;2.43;;;18.40;97.30;;;;;;5029751;28;20464;-70
2023/07/21 00:03:38;;;;;;;3.90;2.47;;;18.40;95.80;;;;;;5028815;28;20201;-70
2023/07/21 00:06:06;;;;;;;2.70;2.50;;;18.60;96.10;;;;;;5029738;28;20433;-70
2023/07/21 00:08:32;;;;;;;3.00;2.73;;;18.50;96.10;;;;;;5027139;28;20487;-70
2023/07/21 00:10:58;;;;;;;3.70;2.73;;;18.40;97.00;;;;;;5029939;28;20464;-70
2023/07/21 00:13:25;;;;;;;2.43;2.23;;;18.50;96.60;;;;;;5029771;28;20523;-70
2023/07/21 00:15:52;;;;;;;3.73;2.83;;;18.40;97.30;;;;;;5031520;28;20470;-70
2023/07/21 00:18:19;;;;;;;3.67;2.30;;;18.40;97.50;;;;;;5029862;28;20922;-70
2023/07/21 00:20:44;;;;;;;2.57;2.27;;;18.50;96.80;;;;;;5030591;28;20496;-70
2023/07/21 00:23:10;;;;;;;2.50;2.30;;;18.50;97.90;;;;;;5028920;28;20468;-70
2023/07/21 00:25:35;;;;;;;2.70;2.50;;;18.50;98.50;;;;;;5031021;28;20182;-70
2023/07/21 00:28:01;;;;;;;2.90;2.70;;;18.50;97.20;;;;;;5029969;28;20178;-70
2023/07/21 00:30:26;;;;;;;2.80;2.37;;;18.50;98.10;;;;;;5029511;28;20213;-70
2023/07/21 00:32:52;;;;;;;2.70;2.50;;;18.30;98.50;;;;;;5029702;28;20182;-70
2023/07/21 00:35:18;;;;;;;3.67;2.63;;;18.40;98.40;;;;;;5030058;28;20269;-70
2023/07/21 00:37:43;;;;;;;3.00;2.43;;;18.30;97.10;;;;;;5032659;28;20197;-70
2023/07/21 00:40:09;;;;;;;3.30;2.47;;;18.40;96.00;;;;;;5033464;28;20744;-70
2023/07/21 00:42:38;;;;;;;2.77;2.57;;;18.40;94.90;;;;;;5030950;28;20182;-70
2023/07/21 00:45:04;;;;;;;3.17;2.40;;;18.40;96.60;;;;;;5029086;28;20437;-70
2023/07/21 00:47:30;;;;;;;3.17;2.97;;;18.40;96.00;;;;;;5027664;28;20487;-70
2023/07/21 00:49:57;;;;;;;2.90;2.70;;;18.40;96.60;;;;;;5030512;28;20436;-71
2023/07/21 00:52:23;;;;;;;3.27;2.97;;;18.40;98.00;;;;;;5032883;28;20459;-70
2023/07/21 00:54:49;;;;;;;2.90;2.70;;;18.50;97.30;;;;;;5033006;28;20468;-70
2023/07/21 00:57:17;;;;;;;3.17;2.53;;;18.40;96.70;;;;;;5033485;28;20992;-70
2023/07/21 00:59:43;;;;;;;3.70;2.90;;;18.50;96.50;;;;;;5031726;28;20178;-70
2023/07/21 01:02:09;;;;;;;2.73;2.50;;;18.50;96.80;;;;;;5034316;28;20452;-70
2023/07/21 01:04:35;;;;;;;2.60;2.40;;;18.50;98.00;;;;;;5030954;28;20170;-70
2023/07/21 01:07:06;;;;;;;8.23;3.20;;;18.50;97.90;;;;;;5033101;28;20930;-70
2023/07/21 01:09:35;;;;;;;4.40;2.87;;;18.50;98.80;;;;;;5029708;28;20178;-70
2023/07/21 01:12:01;;;;;;;3.60;3.03;;;18.50;99.50;;;;;;5036527;28;20468;-70
2023/07/21 01:14:29;;;;;;;6.63;3.17;;;18.60;99.90;;;;;;5028826;28;20429;-71
2023/07/21 01:16:59;;;;;;;3.33;2.50;;;18.50;99.90;;;;;;5033699;28;20987;-70
2023/07/21 01:19:28;;;;;;;3.00;2.47;;;18.40;99.90;;;;;;5033113;28;20511;-70
2023/07/21 01:22:08;;;;;;;5.00;2.70;;;18.30;99.90;;;;;;5033490;28;20542;-70
2023/07/21 01:24:41;;;;;;;2.90;2.70;;;18.20;99.90;;;;;;5029026;28;20441;-70
2023/07/21 01:27:10;;;;;;;5.10;3.00;;;18.10;99.90;;;;;;5033109;28;20463;-70
2023/07/21 01:29:39;;;;;;;2.90;2.67;;;18.00;99.90;;;;;;5029923;28;20433;-70
2023/07/21 01:32:08;;;;;;;2.63;2.13;;;18.00;99.90;;;;;;5030132;28;20456;-70
2023/07/21 01:34:34;;;;;;;3.60;2.80;;;18.00;99.90;;;;;;5032479;28;20437;-70
2023/07/21 01:37:02;;;;;;;4.03;3.17;;;18.10;99.90;;;;;;5033142;28;20492;-70
2023/07/21 01:39:30;;;;;;;4.47;3.17;;;18.10;99.90;;;;;;5031085;28;20982;-70
2023/07/21 01:41:56;;;;;;;3.13;2.83;;;18.10;99.90;;;;;;5031722;28;20491;-70
2023/07/21 01:44:22;;;;;;;4.17;2.50;;;18.00;99.90;;;;;;5032165;28;20486;-70
2023/07/21 01:46:48;;;;;;;3.20;2.90;;;18.00;99.90;;;;;;5031606;28;20437;-70
2023/07/21 01:49:17;;;;;;;4.07;2.80;;;18.00;99.90;;;;;;5027015;28;20460;-70
2023/07/21 01:51:44;;;;;;;2.80;2.60;;;18.00;99.90;;;;;;5028978;28;20484;-70
2023/07/21 01:54:20;;;;;;;3.80;2.63;;;18.00;99.90;;;;;;5031772;28;20479;-70
2023/07/21 01:56:52;;;;;;;2.60;2.40;;;18.00;99.90;;;;;;5029663;28;20531;-70
2023/07/21 01:59:21;;;;;;;2.83;2.60;;;18.00;99.90;;;;;;5032197;28;20519;-70
2023/07/21 02:01:48;;;;;;;4.80;3.00;;;17.90;99.90;;;;;;5030975;28;20758;-70
2023/07/21 02:04:13;;;;;;;3.30;2.47;;;17.80;99.90;;;;;;5031035;28;20490;-70
2023/07/21 02:06:39;;;;;;;4.83;2.70;;;17.70;99.90;;;;;;5031638;28;20440;-70
2023/07/21 02:09:05;;;;;;;2.50;2.30;;;17.70;99.90;;;;;;5032643;28;20182;-70
2023/07/21 02:11:31;;;;;;;4.93;2.57;;;17.70;99.90;;;;;;5031388;28;20471;-70
2023/07/21 02:13:58;;;;;;;3.47;3.17;;;17.70;99.90;;;;;;5028446;28;20193;-70
2023/07/21 02:16:23;;;;;;;3.00;2.70;;;17.80;99.90;;;;;;5032630;28;20257;-70
2023/07/21 02:18:49;;;;;;;3.53;2.50;;;17.80;99.90;;;;;;5032408;28;20532;-70
2023/07/21 02:21:14;;;;;;;3.03;2.80;;;17.80;99.90;;;;;;5032534;28;20326;-70
2023/07/21 02:23:40;;;;;;;9.37;3.53;;;17.70;99.90;;;;;;5030865;28;20183;-70
2023/07/21 02:26:05;;;;;;;3.27;3.07;;;17.60;99.90;;;;;;5031574;28;20205;-70
2023/07/21 02:28:31;;;;;;;3.10;2.90;;;17.50;99.90;;;;;;5029271;28;20201;-70
2023/07/21 02:31:04;;;;;;;3.47;3.17;;;17.50;99.90;;;;;;5028440;28;20210;-70
2023/07/21 02:33:30;;;;;;;3.37;2.90;;;17.40;99.90;;;;;;5023019;28;20181;-70
2023/07/21 02:36:00;;;;;;;3.10;2.57;;;17.40;99.90;;;;;;5032337;28;20424;-70
2023/07/21 02:38:26;;;;;;;3.70;3.00;;;17.50;99.90;;;;;;5032760;28;20992;-70
2023/07/21 02:40:51;;;;;;;3.10;2.80;;;17.60;99.90;;;;;;5032160;28;20480;-70
2023/07/21 02:43:17;;;;;;;3.23;2.93;;;17.60;99.90;;;;;;5030466;28;20235;-70
2023/07/21 02:45:53;;;;;;;4.53;3.27;;;17.60;99.90;;;;;;5028601;28;20259;-70
2023/07/21 02:48:20;;;;;;;3.50;2.47;;;17.70;99.90;;;;;;5027442;28;20655;-70
2023/07/21 02:50:50;;;;;;;3.50;3.13;;;17.60;99.90;;;;;;5030735;28;20807;-70
2023/07/21 02:53:18;;;;;;;3.13;2.90;;;17.70;99.90;;;;;;5023115;28;20516;-70
2023/07/21 02:55:44;;;;;;;4.00;2.90;;;17.70;99.90;;;;;;5029963;28;21261;-70
2023/07/21 02:58:12;;;;;;;2.57;2.33;;;17.80;99.90;;;;;;5031575;28;20441;-70
2023/07/21 03:00:39;;;;;;;5.60;2.33;;;17.70;99.90;;;;;;5030364;28;20552;-69
2023/07/21 03:03:05;;;;;;;3.63;2.47;;;17.70;99.90;;;;;;5029958;28;20436;-70
2023/07/21 03:05:31;;;;;;;3.00;2.50;;;17.70;99.90;;;;;;5031359;28;20439;-70
2023/07/21 03:07:57;;;;;;;3.30;3.00;;;17.80;99.90;;;;;;5030523;28;20877;-70
2023/07/21 03:10:23;;;;;;;3.77;2.80;;;17.60;99.90;;;;;;5032816;28;20498;-70
2023/07/21 03:12:48;;;;;;;3.53;3.20;;;17.50;99.90;;;;;;5030387;28;20182;-70
2023/07/21 03:15:15;;;;;;;4.03;3.53;;;17.40;99.90;;;;;;5027740;28;20186;-70
2023/07/21 03:17:40;;;;;;;2.67;2.33;;;17.40;99.90;;;;;;5030186;28;20578;-70
2023/07/21 03:20:11;;;;;;;3.60;3.30;;;17.20;99.90;;;;;;5029953;28;20472;-70
2023/07/21 03:22:37;;;;;;;3.20;2.90;;;17.20;99.90;;;;;;5029184;28;20181;-70
2023/07/21 03:25:06;;;;;;;2.80;2.60;;;17.20;99.90;;;;;;5029946;28;20510;-70
2023/07/21 03:27:35;;;;;;;2.97;2.70;;;17.20;99.90;;;;;;5031185;28;20437;-70
2023/07/21 03:30:01;;;;;;;3.17;2.57;;;17.30;99.90;;;;;;5027461;28;20441;-70
2023/07/21 03:32:27;;;;;;;2.30;2.10;;;17.40;99.90;;;;;;5030668;28;20464;-70
2023/07/21 03:34:54;;;;;;;3.23;2.93;;;17.50;99.90;;;;;;5028754;28;20452;-70
2023/07/21 03:37:23;;;;;;;2.60;2.40;;;17.70;99.90;;;;;;5026907;28;20453;-70
2023/07/21 03:39:48;;;;;;;4.10;3.80;;;18.00;99.90;;;;;;5030005;28;20475;-70
2023/07/21 03:42:14;;;;;;;4.07;3.10;;;18.10;99.90;;;;;;5030856;28;20921;-70
2023/07/21 03:44:39;;;;;;;2.70;2.50;;;18.10;99.90;;;;;;5032294;28;20709;-70
2023/07/21 03:47:05;;;;;;;3.90;2.77;;;18.00;99.90;;;;;;5030623;28;20213;-70
2023/07/21 03:49:31;;;;;;;3.93;2.73;;;18.00;99.90;;;;;;5030488;28;20648;-70
2023/07/21 03:51:57;;;;;;;4.10;3.70;;;17.90;99.90;;;;;;5027420;28;20285;-70
2023/07/21 03:54:23;;;;;;;3.17;2.70;;;17.70;99.90;;;;;;5029000;28;20457;-70
2023/07/21 03:56:48;;;;;;;5.67;3.30;;;17.70;99.90;;;;;;5029381;28;20182;-70
2023/07/21 03:59:14;;;;;;;2.60;2.40;;;17.60;99.90;;;;;;5029456;28;20232;-70
2023/07/21 04:01:39;;;;;;;2.57;2.37;;;17.60;99.90;;;;;;5032622;28;20228;-70
2023/07/21 04:04:05;;;;;;;4.00;3.00;;;17.90;99.90;;;;;;5030483;28;20192;-70
2023/07/21 04:06:30;;;;;;;3.17;2.87;;;18.20;99.90;;;;;;5028712;28;20171;-70
2023/07/21 04:08:56;;;;;;;4.00;2.60;;;18.10;99.90;;;;;;5027289;28;20272;-70
2023/07/21 04:11:21;;;;;;;3.33;2.70;;;18.30;99.90;;;;;;5028418;28;20302;-70
2023/07/21 04:13:47;;;;;;;5.20;3.30;;;18.40;99.90;;;;;;5033049;28;20273;-70
2023/07/21 04:16:13;;;;;;;3.90;3.10;;;18.50;99.90;;;;;;5037241;28;20182;-70
2023/07/21 04:18:39;;;;;;;4.37;3.30;;;18.30;99.90;;;;;;5033892;28;20193;-70
2023/07/21 04:21:05;;;;;;;2.93;2.73;;;18.20;99.90;;;;;;5033968;28;20345;-70
2023/07/21 04:23:30;;;;;;;3.60;2.23;;;18.20;99.90;;;;;;5034886;28;21033;-70
2023/07/21 04:25:56;;;;;;;2.50;2.30;;;18.20;99.90;;;;;;5033321;28;20178;-70
2023/07/21 04:28:22;;;;;;;4.80;2.80;;;18.20;99.90;;;;;;5034496;28;20300;-70
2023/07/21 04:30:52;;;;;;;3.80;3.20;;;18.20;99.90;;;;;;5033613;28;20206;-69
2023/07/21 04:33:18;;;;;;;3.50;2.80;;;18.00;99.90;;;;;;5034109;28;20437;-70
2023/07/21 04:35:47;;;;;;;4.10;3.70;;;18.00;99.90;;;;;;5033290;28;20436;-70
2023/07/21 04:38:14;;;;;;;3.70;2.97;;;18.00;99.90;;;;;;5031451;28;20829;-70
2023/07/21 04:40:44;;;;;;;3.87;3.13;;;18.10;99.90;;;;;;5033051;28;20551;-70
2023/07/21 04:43:10;;;;;;;3.50;3.20;;;18.20;99.90;;;;;;5034064;28;20440;-70
2023/07/21 04:45:39;;;;;;;3.10;2.80;;;18.30;99.90;;;;;;5030627;28;20432;-70
2023/07/21 04:48:05;;;;;;;6.33;3.50;;;18.40;99.90;;;;;;5033597;28;20519;-70
2023/07/21 04:50:30;;;;;;;4.27;3.27;;;18.60;99.90;;;;;;5033119;28;20548;-70
2023/07/21 04:52:56;;;;;;;4.40;2.70;;;18.80;99.90;;;;;;5032821;28;20659;-70
2023/07/21 04:55:22;;;;;;;2.87;2.67;;;19.00;99.90;;;;;;5030882;28;20178;-69
2023/07/21 04:57:48;;;;;;;3.90;3.00;;;19.10;99.90;;;;;;5030887;28;20600;-70
2023/07/21 05:00:15;;;;;;;3.60;3.27;;;19.30;99.90;;;;;;5031034;28;20464;-70
2023/07/21 05:02:40;;;;;;;3.13;2.80;;;19.40;99.90;;;;;;5031963;28;20182;-70
2023/07/21 05:05:07;;;;;;;3.23;3.00;;;19.40;99.90;;;;;;5030947;28;21170;-69
2023/07/21 05:07:33;;;;;;;4.40;3.50;;;19.50;99.90;;;;;;5033943;28;20216;-70
2023/07/21 05:09:58;;;;;;;4.30;3.93;;;19.50;99.90;;;;;;5031260;28;20866;-70
2023/07/21 05:12:24;;;;;;;4.10;2.93;;;19.40;99.90;;;;;;5029630;28;20202;-69
2023/07/21 05:14:50;;;;;;;3.40;2.90;;;19.20;99.90;;;;;;5030916;28;20189;-69
2023/07/21 05:17:17;;;;;;;4.13;2.93;;;19.00;99.90;;;;;;5028983;28;20954;-69
2023/07/21 05:19:43;;;;;;;8.93;2.80;;;18.80;99.90;;;;;;5026472;28;20678;-69
2023/07/21 05:22:09;;;;;;;4.40;4.00;;;18.80;99.90;;;;;;5033115;28;20838;-69
2023/07/21 05:24:35;;;;;;;9.90;9.00;;;19.00;99.90;;;;;;5026467;28;20434;-69
2023/07/21 05:27:00;;;;;;;6.03;3.40;;;19.20;99.90;;;;;;5035265;28;20666;-69
2023/07/21 05:29:26;;;;;;;6.33;3.60;;;19.40;99.90;;;;;;5031869;28;20450;-69
2023/07/21 05:31:52;;;;;;;7.50;4.40;;;19.50;99.90;;;;;;5031318;28;20668;-68
2023/07/21 05:34:18;;;;;;;9.50;3.50;;;19.60;99.90;;;;;;5030024;28;20190;-69
2023/07/21 05:36:43;;;;;;;5.03;3.03;;;19.60;99.90;;;;;;5031574;28;20257;-69
2023/07/21 05:39:09;;;;;;;4.17;2.90;;;19.60;99.90;;;;;;5028744;28;20274;-69
2023/07/21 05:41:34;;;;;;;4.10;2.77;;;19.70;99.90;;;;;;5033152;28;20267;-69
2023/07/21 05:44:00;;;;;;;3.77;3.13;;;19.80;99.90;;;;;;5033271;28;20201;-69
2023/07/21 05:46:25;;;;;;;4.30;3.70;;;19.90;99.90;;;;;;5026139;28;20257;-69
2023/07/21 05:48:51;;;;;;;4.73;3.37;;;19.90;99.90;;;;;;5032225;28;20270;-69
2023/07/21 05:51:17;;;;;;;10.50;6.87;;;20.40;99.90;;;;;;5031298;28;20210;-69
2023/07/21 05:53:43;;;;;;;4.53;4.10;;;20.20;99.90;;;;;;5028920;28;20174;-69
2023/07/21 05:56:11;;;;;;;5.23;4.73;;;20.30;99.90;;;;;;5033582;28;20419;-68
2023/07/21 05:58:37;;;;;;;4.77;4.00;;;20.40;99.90;;;;;;5030870;28;20440;-69
2023/07/21 06:01:02;;;;;;;4.60;4.20;;;20.60;99.90;;;;;;5028420;28;20475;-69
2023/07/21 06:03:28;;;;;;;7.83;3.43;;;20.80;99.90;;;;;;5032761;28;20178;-69
2023/07/21 06:05:54;;;;;;;2.97;2.60;;;20.90;99.90;;;;;;5026300;28;20626;-69
2023/07/21 06:08:21;;;;;;;4.70;3.20;;;21.00;99.90;;;;;;5031144;28;20174;-69
2023/07/21 06:10:46;;;;;;;4.90;2.97;;;21.20;99.90;;;;;;5031877;28;20495;-69
2023/07/21 06:13:12;;;;;;;3.23;2.93;;;21.40;99.90;;;;;;5029128;28;20469;-69
2023/07/21 06:15:37;;;;;;;3.40;3.10;;;21.50;99.90;;;;;;5031375;28;20736;-69
2023/07/21 06:18:04;;;;;;;5.10;3.00;;;21.70;99.90;;;;;;5026763;28;20180;-69
2023/07/21 06:20:29;;;;;;;6.00;3.37;;;21.90;98.80;;;;;;5028613;28;20573;-69
2023/07/21 06:22:56;;;;;;;3.50;3.27;;;22.00;97.80;;;;;;5032325;28;20425;-69
2023/07/21 06:25:21;;;;;;;4.40;3.50;;;22.20;97.10;;;;;;5032777;28;20185;-69
2023/07/21 06:27:48;;;;;;;8.53;5.03;;;22.30;96.60;;;;;;5032323;28;20831;-69
2023/07/21 06:30:14;;;;;;;4.17;2.90;;;22.50;96.00;;;;;;5031008;28;20547;-69
2023/07/21 06:32:43;;;;;;;2.73;2.53;;;22.70;94.80;;;;;;5032457;28;20490;-69
2023/07/21 06:35:10;;;;;;;3.73;2.70;;;22.80;92.40;;;;;;5023668;28;20190;-69
2023/07/21 06:37:37;;;;;;;2.50;2.30;;;22.90;90.40;;;;;;5027872;28;20785;-69
2023/07/21 06:40:06;;;;;;;7.63;2.60;;;23.00;88.80;;;;;;5029918;28;20476;-70
2023/07/21 06:42:32;;;;;;;6.07;2.83;;;22.90;84.80;;;;;;5031613;28;20457;-69
2023/07/21 06:44:58;;;;;;;2.73;2.50;;;23.10;84.20;;;;;;5031300;28;20945;-69
2023/07/21 06:47:23;;;;;;;3.30;3.07;;;23.00;81.00;;;;;;5031236;28;20178;-68
2023/07/21 06:49:49;;;;;;;3.23;2.60;;;22.80;81.50;;;;;;5030990;28;20170;-70
2023/07/21 06:52:15;;;;;;;4.73;2.37;;;22.90;82.10;;;;;;5031442;28;20202;-68
2023/07/21 06:54:40;;;;;;;3.53;2.50;;;22.80;81.20;;;;;;5022645;28;20645;-69
2023/07/21 06:57:06;;;;;;;2.57;2.37;;;22.90;81.80;;;;;;5030671;28;20193;-69
2023/07/21 06:59:32;;;;;;;2.97;2.77;;;22.60;80.70;;;;;;5031749;28;20170;-68
2023/07/21 07:01:58;;;;;;;2.70;2.20;;;22.50;81.50;;;;;;5024903;28;20606;-68
2023/07/21 07:04:25;;;;;;;5.70;2.70;;;22.60;82.00;;;;;;5031675;28;20636;-69
2023/07/21 07:06:52;;;;;;;4.87;2.53;;;23.10;80.20;;;;;;5029791;28;20217;-69
2023/07/21 07:09:17;;;;;;;5.60;3.50;;;23.50;79.10;;;;;;5026851;28;21106;-69
2023/07/21 07:11:43;;;;;;;2.40;2.10;;;24.20;76.10;;;;;;5029009;28;20475;-69
2023/07/21 07:14:08;;;;;;;2.40;2.20;;;24.70;72.80;;;;;;5022846;28;20186;-69
2023/07/21 07:16:34;;;;;;;2.70;2.50;;;24.90;69.90;;;;;;5026280;28;20185;-70
2023/07/21 07:18:59;;;;;;;6.73;2.70;;;24.90;69.60;;;;;;5022755;28;20174;-70
2023/07/21 07:21:25;;;;;;;2.30;2.10;;;24.70;69.60;;;;;;5023922;28;20630;-70
2023/07/21 07:23:50;;;;;;;3.97;2.37;;;24.40;69.90;;;;;;5022317;28;20182;-69
2023/07/21 07:26:17;;;;;;;2.10;2.00;;;24.00;71.30;;;;;;5030097;28;20178;-69
2023/07/21 07:28:42;;;;;;;2.13;1.93;;;23.80;72.70;;;;;;5029687;28;20190;-70
2023/07/21 07:31:08;;;;;;;4.23;2.50;;;24.00;73.50;;;;;;5029987;28;20496;-70
2023/07/21 07:33:33;;;;;;;4.17;2.30;;;24.20;72.60;;;;;;5029016;28;20186;-70
2023/07/21 07:35:59;;;;;;;4.60;2.40;;;24.40;72.70;;;;;;5029369;28;20232;-69
2023/07/21 07:38:27;;;;;;;8.93;3.40;;;24.40;72.00;;;;;;5029753;28;20185;-69
2023/07/21 07:40:53;;;;;;;6.57;2.93;;;24.40;71.60;;;;;;5027802;28;20559;-69
2023/07/21 07:43:19;;;;;;;4.40;2.70;;;24.60;71.60;;;;;;5025282;28;20972;-69
2023/07/21 07:45:44;;;;;;;4.23;2.53;;;24.90;70.70;;;;;;5029656;28;20497;-69
2023/07/21 07:48:10;;;;;;;4.50;3.00;;;25.30;68.70;;;;;;5030028;28;20174;-69
2023/07/21 07:50:40;;;;;;;4.03;3.20;;;25.30;69.30;;;;;;5030478;28;20198;-69
2023/07/21 07:53:06;;;;;;;3.30;3.00;;;25.80;68.30;;;;;;5024404;28;20945;-69
2023/07/21 07:55:38;;;;;;;5.40;2.10;;;26.30;64.80;;;;;;5029749;28;20830;-69
2023/07/21 07:58:04;;;;;;;3.70;3.13;;;26.30;62.70;;;;;;5023518;28;20839;-69
2023/07/21 08:00:30;;;;;;;3.27;2.33;;;26.20;62.70;;;;;;5025674;28;20603;-69
2023/07/21 08:02:55;;;;;;;3.00;2.77;;;26.20;62.40;;;;;;5024162;28;20644;-69
2023/07/21 08:05:21;;;;;;;6.00;3.27;;;26.00;62.90;;;;;;5020246;28;20267;-69
2023/07/21 08:07:48;;;;;;;4.37;2.20;;;26.10;64.60;;;;;;5027728;28;20269;-69
2023/07/21 08:10:14;;;;;;;3.00;2.63;;;26.30;63.10;;;;;;5027407;28;20212;-69
2023/07/21 08:12:40;;;;;;;3.60;2.30;;;26.50;62.20;;;;;;5029709;28;20478;-70
2023/07/21 08:15:06;;;;;;;3.40;2.37;;;26.70;62.60;;;;;;5030120;28;20820;-70
2023/07/21 08:17:35;;;;;;;2.53;2.27;;;26.90;61.30;;;;;;5026312;28;20177;-69
2023/07/21 08:20:00;;;;;;;2.37;2.17;;;27.10;59.50;;;;;;5031328;28;20917;-70
2023/07/21 08:22:25;;;;;;;4.40;2.37;;;27.00;58.80;;;;;;5029121;28;20547;-70
2023/07/21 08:24:51;;;;;;;3.83;2.40;;;26.60;59.10;;;;;;5021900;28;20177;-70
2023/07/21 08:27:16;;;;;;;3.90;2.47;;;26.20;59.90;;;;;;5028391;28;20189;-70
2023/07/21 08:29:42;;;;;;;2.83;2.63;;;26.20;60.00;;;;;;5028350;28;20190;-70
2023/07/21 08:32:08;;;;;;;3.63;2.60;;;26.20;59.40;;;;;;5029932;28;20198;-70
2023/07/21 08:34:33;;;;;;;3.13;2.40;;;26.90;58.60;;;;;;5026895;28;20190;-70
2023/07/21 08:36:59;;;;;;;2.93;2.60;;;27.70;57.10;;;;;;5026870;28;20206;-70
2023/07/21 08:39:25;;;;;;;3.30;2.20;;;28.20;55.50;;;;;;5027897;28;20183;-70
2023/07/21 08:41:50;;;;;;;2.50;2.00;;;28.60;54.30;;;;;;5024675;28;20308;-70
2023/07/21 08:44:16;;;;;;;2.53;2.33;;;28.80;52.90;;;;;;5026634;28;20187;-70
2023/07/21 08:46:42;;;;;;;2.30;2.10;;;29.00;52.40;;;;;;5028714;28;20185;-70
2023/07/21 08:49:08;;;;;;;2.63;2.40;;;28.70;51.50;;;;;;5027029;28;20187;-70
2023/07/21 08:51:35;;;;;;;4.10;2.27;;;28.60;51.90;;;;;;5022309;28;20718;-70
2023/07/21 08:54:01;;;;;;;3.03;2.60;;;28.80;52.00;;;;;;5026594;28;20527;-70
2023/07/21 08:56:27;;;;;;;2.10;2.00;;;28.40;50.80;;;;;;5028290;28;20543;-70
2023/07/21 08:58:52;;;;;;;2.80;2.10;;;28.30;50.60;;;;;;5021369;28;20187;-70
2023/07/21 09:01:18;;;;;;;3.10;2.07;;;28.50;49.50;;;;;;5032151;28;20269;-70
2023/07/21 09:03:45;;;;;;;3.00;2.23;;;28.70;50.20;;;;;;5022933;28;20621;-70
2023/07/21 09:06:13;;;;;;;2.50;2.30;;;28.80;49.20;;;;;;5029548;28;20275;-70
2023/07/21 09:08:38;;;;;;;2.87;2.67;;;29.10;49.20;;;;;;5031858;28;20520;-70
2023/07/21 09:11:04;;;;;;;4.23;2.63;;;29.40;48.50;;;;;;5032656;28;20555;-70
2023/07/21 09:13:31;;;;;;;3.50;2.40;;;29.30;48.60;;;;;;5031386;28;20720;-70
2023/07/21 09:16:02;;;;;;;2.67;2.47;;;29.40;48.40;;;;;;5031413;28;20461;-70
2023/07/21 09:18:29;;;;;;;3.07;2.43;;;29.40;47.90;;;;;;5030184;28;20541;-70
2023/07/21 09:20:56;;;;;;;3.20;1.80;;;28.70;47.90;;;;;;5026179;28;20472;-71
2023/07/21 09:23:22;;;;;;;7.30;2.23;;;28.40;48.40;;;;;;5030278;28;20478;-70
2023/07/21 09:25:53;;;;;;;1.97;1.87;;;28.20;48.30;;;;;;5025839;28;20468;-70
2023/07/21 09:28:36;;;;;;;2.70;2.43;;;28.00;48.50;;;;;;5028471;28;20997;-71
2023/07/21 09:31:02;;;;;;;2.03;1.93;;;28.00;48.80;;;;;;5030865;28;20448;-70
2023/07/21 09:33:27;;;;;;;4.67;2.30;;;27.90;48.50;;;;;;5032789;28;20429;-70
2023/07/21 09:36:05;;;;;;;2.10;1.90;;;28.20;48.80;;;;;;5032473;28;20213;-69
2023/07/21 09:38:32;;;;;;;2.40;1.90;;;28.70;47.40;;;;;;5028217;28;20709;-71
2023/07/21 09:41:06;;;;;;;3.40;2.37;;;29.10;47.00;;;;;;5029151;28;20841;-70
2023/07/21 09:43:32;;;;;;;1.83;1.73;;;29.50;45.70;;;;;;5025458;28;20519;-70
2023/07/21 09:46:07;;;;;;;4.47;2.10;;;29.80;44.30;;;;;;5023765;28;20532;-70
2023/07/21 09:48:33;;;;;;;4.80;2.40;;;29.80;45.30;;;;;;5032749;28;20980;-70
2023/07/21 09:51:02;;;;;;;2.70;2.50;;;29.60;44.20;;;;;;5033786;28;20508;-70
2023/07/21 09:53:32;;;;;;;4.23;2.73;;;29.80;44.30;;;;;;5032989;28;20511;-70
2023/07/21 09:56:00;;;;;;;3.33;2.67;;;30.10;44.30;;;;;;5032270;28;20992;-74
2023/07/21 09:58:27;;;;;;;2.17;2.07;;;30.70;43.60;;;;;;5028520;28;20502;-71
2023/07/21 10:01:02;;;;;;;2.23;1.80;;;30.50;42.60;;;;;;5029996;28;21182;-71
2023/07/21 10:03:29;;;;;;;2.53;1.97;;;29.90;42.80;;;;;;5031248;28;20432;-70
2023/07/21 10:05:56;;;;;;;3.07;1.80;;;29.10;43.60;;;;;;5028486;28;20502;-71
2023/07/21 10:08:22;;;;;;;2.20;2.10;;;29.50;43.70;;;;;;5023484;28;20572;-71
2023/07/21 10:10:48;;;;;;;2.63;2.17;;;30.70;43.10;;;;;;5028043;28;20511;-70
2023/07/21 10:13:14;;;;;;;4.80;2.60;;;31.40;41.80;;;;;;5026115;28;20966;-71
2023/07/21 10:15:42;;;;;;;2.93;2.07;;;31.90;41.80;;;;;;5031888;28;22131;-71
2023/07/21 10:18:12;;;;;;;3.17;2.20;;;32.40;39.30;;;;;;5031907;28;20185;-71
2023/07/21 10:20:52;;;;;;;2.47;2.27;;;33.20;39.30;;;;;;5026253;28;20838;-68
2023/07/21 10:23:38;;;;;;;2.50;2.00;;;33.50;37.80;;;;;;5031596;28;20433;-70
2023/07/21 10:26:05;;;;;;;5.73;3.23;;;34.20;36.90;;;;;;5031326;28;20424;-68
2023/07/21 10:28:31;;;;;;;5.40;2.70;;;34.00;36.90;;;;;;5023634;28;20463;-68
2023/07/21 10:31:22;;;;;;;4.50;3.60;;;33.30;36.90;;;;;;5031938;28;20503;-68
2023/07/21 10:34:06;;;;;;;5.90;4.03;;;32.30;37.60;;;;;;5033779;28;20437;-68
2023/07/21 10:36:43;;;;;;;2.70;2.50;;;31.70;38.50;;;;;;5030932;28;20436;-68
2023/07/21 10:39:11;;;;;;;3.13;2.90;;;32.10;38.30;;;;;;5030330;28;20424;-67
2023/07/21 10:41:38;;;;;;;6.43;4.80;;;32.90;37.00;;;;;;5030102;28;20461;-69
2023/07/21 10:44:13;;;;;;;2.63;2.43;;;34.00;36.00;;;;;;5031171;28;20490;-69
2023/07/21 10:46:41;;;;;;;2.60;2.40;;;35.00;34.40;;;;;;5029297;28;20501;-68
2023/07/21 10:49:11;;;;;;;2.17;1.87;;;36.40;33.80;;;;;;5028715;28;20440;-69
2023/07/21 10:51:40;;;;;;;2.60;2.40;;;37.20;32.50;;;;;;5028403;28;20452;-68
2023/07/21 10:54:06;;;;;;;3.73;2.27;;;36.50;31.90;;;;;;5032362;28;20529;-67
2023/07/21 10:56:43;;;;;;;4.20;2.47;;;36.60;31.70;;;;;;5030388;28;20464;-67
2023/07/21 10:59:09;;;;;;;4.07;2.60;;;36.50;31.70;;;;;;5027422;28;20980;-67
2023/07/21 11:01:44;;;;;;;3.70;3.40;;;36.90;30.60;;;;;;5030110;28;20560;-68
2023/07/21 11:04:11;;;;;;;2.90;2.70;;;37.40;29.90;;;;;;5022950;28;20443;-68
2023/07/21 11:06:44;;;;;;;2.33;2.17;;;37.70;29.70;;;;;;5027926;28;20433;-67
2023/07/21 11:09:11;;;;;;;2.60;2.40;;;38.40;29.40;;;;;;5027810;28;20796;-67
2023/07/21 11:11:41;;;;;;;5.00;2.50;;;38.90;28.80;;;;;;5028929;28;20464;-67
2023/07/21 11:14:19;;;;;;;2.60;2.03;;;38.40;28.40;;;;;;5031381;28;20440;-67
2023/07/21 11:16:53;;;;;;;3.60;2.13;;;38.20;28.00;;;;;;5032273;28;20474;-67
2023/07/21 11:19:23;;;;;;;3.03;2.40;;;35.90;28.80;;;;;;5030059;28;20444;-67
2023/07/21 11:21:49;;;;;;;3.30;2.70;;;35.80;29.70;;;;;;5030352;28;20547;-66
2023/07/21 11:24:23;;;;;;;3.37;2.70;;;35.90;29.40;;;;;;5025241;28;20795;-67
2023/07/21 11:26:49;;;;;;;2.30;2.20;;;34.70;30.70;;;;;;5024061;28;20438;-68
2023/07/21 11:29:15;;;;;;;2.87;2.30;;;33.70;31.90;;;;;;5026246;28;20824;-66
2023/07/21 11:31:41;;;;;;;2.10;1.90;;;33.00;32.20;;;;;;5029723;28;20472;-67
2023/07/21 11:34:21;;;;;;;3.77;2.63;;;31.40;33.20;;;;;;5031220;28;20429;-67
2023/07/21 11:36:48;;;;;;;2.47;2.27;;;29.80;35.40;;;;;;5027946;28;21041;-72
2023/07/21 11:39:19;;;;;;;3.87;3.00;;;29.20;36.10;;;;;;5029619;28;20445;-67
2023/07/21 11:41:49;;;;;;;2.47;2.27;;;28.20;37.40;;;;;;5025347;28;20548;-67
2023/07/21 11:44:22;;;;;;;2.63;2.20;;;28.00;37.60;;;;;;5025753;28;20433;-67
2023/07/21 11:47:10;;;;;;;2.17;2.07;;;27.80;38.20;;;;;;5029415;28;20567;-67
2023/07/21 11:49:45;;;;;;;5.97;2.97;;;27.60;39.00;;;;;;5026750;28;20437;-67
2023/07/21 11:52:22;;;;;;;7.33;2.70;;;27.10;39.70;;;;;;5024057;28;20448;-66
2023/07/21 11:54:48;;;;;;;3.90;2.60;;;26.80;40.20;;;;;;5031212;28;20485;-67
2023/07/21 11:57:13;;;;;;;4.13;2.63;;;26.60;40.80;;;;;;5026793;28;20996;-67
2023/07/21 11:59:39;;;;;;;4.90;2.93;;;26.30;43.50;;;;;;5030714;28;20190;-67
2023/07/21 12:02:06;;;;;;;6.60;2.70;;;26.00;45.10;;;;;;5029805;28;20303;-67
2023/07/21 12:04:33;;;;;;;5.83;3.40;;;25.80;50.20;;;;;;5020090;28;20186;-65
2023/07/21 12:06:59;;;;;;;3.67;2.70;;;25.40;57.80;;;;;;5029232;28;20494;-66
2023/07/21 12:09:25;;;;;;;6.03;3.23;;;24.80;79.00;;;;;;5027096;28;20506;-66
2023/07/21 12:11:55;;;;;;;7.47;5.23;;;24.50;94.40;;;;;;5030563;28;20977;-66
2023/07/21 12:14:23;;;;;;;3.50;3.27;;;23.80;99.90;;;;;;5026670;28;20464;-66
2023/07/21 12:16:49;;;;;;;5.70;3.27;;;23.50;98.90;;;;;;5029323;28;20451;-66
2023/07/21 12:19:15;;;;;;;4.70;3.67;;;23.20;99.90;;;;;;5029597;28;21425;-66
2023/07/21 12:21:41;;;;;;;5.00;3.77;;;22.90;99.90;;;;;;5028732;28;20209;-67
2023/07/21 12:24:06;;;;;;;3.30;3.00;;;22.90;99.90;;;;;;5028874;28;20185;-67
2023/07/21 12:26:32;;;;;;;5.20;3.33;;;22.90;99.90;;;;;;5029501;28;20205;-66
2023/07/21 12:28:58;;;;;;;5.90;5.33;;;23.00;99.90;;;;;;5030040;28;20944;-67
2023/07/21 12:31:24;;;;;;;4.80;3.73;;;23.00;99.90;;;;;;5026023;28;20201;-67
2023/07/21 12:33:50;;;;;;;4.70;4.20;;;22.90;99.90;;;;;;5022481;28;20433;-66
2023/07/21 12:36:16;;;;;;;3.27;3.07;;;22.90;99.90;;;;;;5028281;28;20308;-66
2023/07/21 12:38:42;;;;;;;3.40;2.50;;;22.90;99.90;;;;;;5032528;28;20186;-67
2023/07/21 12:41:08;;;;;;;4.90;2.90;;;22.90;99.90;;;;;;5033012;28;20555;-67
2023/07/21 12:43:35;;;;;;;3.23;2.90;;;22.90;99.90;;;;;;5030218;28;20443;-67
2023/07/21 12:46:00;;;;;;;3.10;2.73;;;23.00;99.90;;;;;;5031614;28;20860;-67
2023/07/21 12:48:27;;;;;;;4.50;2.67;;;22.90;99.90;;;;;;5031170;28;20556;-66